createdAt,value
2022-10-26T00:01:12.750Z,11.59
2022-10-26T00:03:41.493Z,11.41
2022-10-26T00:06:20.325Z,11.68
2022-10-26T00:08:48.422Z,11.66
2022-10-26T00:11:16.268Z,11.61
2022-10-26T00:13:45.426Z,11.31
2022-10-26T00:16:22.693Z,11.56
2022-10-26T00:18:50.575Z,11.54
2022-10-26T00:21:18.045Z,11.49
2022-10-26T00:23:45.413Z,11.49
2022-10-26T00:26:12.982Z,11.23
2022-10-26T00:28:40.584Z,11.49
2022-10-26T00:31:12.374Z,11.31
2022-10-26T00:33:39.609Z,11.47
2022-10-26T00:36:09.545Z,11.20
2022-10-26T00:38:37.098Z,11.17
2022-10-26T00:41:04.452Z,11.36
2022-10-26T00:43:31.637Z,11.39
2022-10-26T00:46:00.214Z,11.37
2022-10-26T00:48:35.751Z,11.03
2022-10-26T00:51:08.697Z,11.32
2022-10-26T00:53:36.567Z,11.30
2022-10-26T00:56:04.486Z,11.19
2022-10-26T00:58:32.723Z,11.26
2022-10-26T01:00:59.807Z,11.21
2022-10-26T01:03:28.388Z,11.17
2022-10-26T01:05:58.454Z,11.21
2022-10-26T01:08:28.622Z,10.93
2022-10-26T01:10:58.626Z,11.20
2022-10-26T01:13:28.619Z,11.13
2022-10-26T01:16:14.474Z,11.11
2022-10-26T01:18:59.375Z,11.08
2022-10-26T01:21:39.819Z,11.05
2022-10-26T01:24:09.635Z,11.01
2022-10-26T01:27:04.576Z,11.00
2022-10-26T01:29:37.538Z,11.00
2022-10-26T01:32:24.853Z,11.00
2022-10-26T01:35:10.605Z,11.00
2022-10-26T01:37:44.695Z,10.90
2022-10-26T01:40:17.851Z,10.95
2022-10-26T01:42:52.253Z,10.70
2022-10-26T01:45:20.066Z,10.95
2022-10-26T01:47:48.870Z,10.95
2022-10-26T01:50:17.655Z,10.94
2022-10-26T01:52:44.777Z,10.95
2022-10-26T01:55:36.468Z,10.98
2022-10-26T01:58:26.375Z,10.97
2022-10-26T02:01:29.002Z,10.87
2022-10-26T02:04:09.621Z,10.94
2022-10-26T02:06:51.936Z,10.98
2022-10-26T02:09:43.709Z,10.95
2022-10-26T02:12:21.535Z,10.96
2022-10-26T02:15:05.497Z,10.72
2022-10-26T02:17:53.819Z,10.95
2022-10-26T02:20:36.626Z,10.83
2022-10-26T02:23:07.454Z,10.91
2022-10-26T02:25:41.384Z,10.79
2022-10-26T02:28:13.570Z,10.90
2022-10-26T02:30:44.435Z,10.88
2022-10-26T02:33:14.018Z,10.91
2022-10-26T02:35:43.649Z,10.91
2022-10-26T02:38:13.184Z,10.91
2022-10-26T02:40:42.183Z,10.86
2022-10-26T02:43:15.175Z,10.87
2022-10-26T02:45:51.589Z,10.70
2022-10-26T02:48:19.538Z,10.63
2022-10-26T02:51:01.577Z,10.78
2022-10-26T02:53:34.025Z,10.74
2022-10-26T02:56:09.334Z,10.75
2022-10-26T02:58:42.158Z,10.76
2022-10-26T03:01:09.428Z,10.66
2022-10-26T03:03:36.762Z,10.75
2022-10-26T03:06:04.137Z,10.62
2022-10-26T03:08:31.484Z,10.78
2022-10-26T03:10:58.894Z,10.84
2022-10-26T03:13:26.306Z,10.85
2022-10-26T03:15:57.844Z,10.85
2022-10-26T03:18:25.135Z,10.85
2022-10-26T03:20:52.379Z,10.89
2022-10-26T03:23:19.535Z,10.72
2022-10-26T03:25:46.726Z,10.89
2022-10-26T03:28:14.454Z,10.89
2022-10-26T03:30:41.644Z,10.83
2022-10-26T03:33:08.816Z,10.77
2022-10-26T03:35:35.926Z,10.96
2022-10-26T03:38:03.090Z,10.79
2022-10-26T03:40:30.238Z,10.96
2022-10-26T03:42:57.505Z,10.99
2022-10-26T03:45:24.614Z,10.69
2022-10-26T03:47:51.695Z,10.95
2022-10-26T03:50:21.013Z,10.93
2022-10-26T03:52:49.790Z,10.91
2022-10-26T03:55:17.686Z,10.94
2022-10-26T03:57:46.068Z,10.93
2022-10-26T04:00:15.774Z,10.47
2022-10-26T04:02:50.405Z,10.91
2022-10-26T04:05:17.724Z,10.87
2022-10-26T04:07:44.969Z,10.84
2022-10-26T04:10:12.184Z,10.75
2022-10-26T04:12:39.467Z,10.60
2022-10-26T04:15:07.635Z,10.87
2022-10-26T04:17:35.064Z,10.85
2022-10-26T04:20:02.336Z,10.81
2022-10-26T04:22:29.668Z,10.79
2022-10-26T04:24:57.016Z,10.80
2022-10-26T04:27:24.355Z,10.77
2022-10-26T04:29:51.578Z,10.53
2022-10-26T04:32:18.866Z,10.78
2022-10-26T04:34:45.975Z,10.73
2022-10-26T04:37:13.345Z,10.74
2022-10-26T04:39:40.493Z,10.69
2022-10-26T04:42:07.655Z,10.69
2022-10-26T04:44:34.825Z,10.49
2022-10-26T04:47:02.143Z,9.96
2022-10-26T04:49:29.465Z,10.27
2022-10-26T04:51:56.571Z,10.28
2022-10-26T04:54:23.808Z,10.57
2022-10-26T04:56:52.300Z,10.55
2022-10-26T04:59:19.736Z,10.60
2022-10-26T05:01:47.033Z,10.56
2022-10-26T05:04:14.579Z,10.56
2022-10-26T05:06:41.858Z,10.28
2022-10-26T05:09:09.147Z,10.56
2022-10-26T05:11:36.559Z,10.49
2022-10-26T05:14:03.860Z,10.50
2022-10-26T05:16:30.979Z,10.08
2022-10-26T05:18:58.303Z,10.46
2022-10-26T05:21:25.610Z,10.42
2022-10-26T05:23:55.637Z,10.38
2022-10-26T05:26:24.310Z,10.49
2022-10-26T05:28:52.495Z,10.49
2022-10-26T05:31:20.593Z,10.45
2022-10-26T05:33:51.618Z,10.41
2022-10-26T05:36:19.555Z,10.44
2022-10-26T05:38:47.466Z,10.40
2022-10-26T05:41:14.667Z,10.40
2022-10-26T05:43:42.014Z,10.39
2022-10-26T05:46:09.309Z,10.09
2022-10-26T05:48:36.714Z,10.33
2022-10-26T05:51:04.343Z,10.41
2022-10-26T05:53:31.618Z,10.42
2022-10-26T05:55:59.314Z,10.35
2022-10-26T05:58:27.088Z,10.43
2022-10-26T06:01:14.136Z,10.37
2022-10-26T06:04:12.120Z,10.31
2022-10-26T06:06:47.582Z,10.29
2022-10-26T06:09:15.608Z,10.30
2022-10-26T06:11:43.199Z,10.31
2022-10-26T06:14:10.888Z,10.16
2022-10-26T06:16:48.451Z,10.35
2022-10-26T06:19:47.558Z,10.35
2022-10-26T06:22:43.215Z,10.09
2022-10-26T06:25:28.745Z,10.31
2022-10-26T06:28:28.645Z,10.26
2022-10-26T06:30:57.732Z,10.16
2022-10-26T06:33:29.387Z,10.27
2022-10-26T06:36:04.803Z,10.44
2022-10-26T06:38:34.898Z,10.46
2022-10-26T06:41:02.505Z,10.18
2022-10-26T06:43:35.708Z,10.29
2022-10-26T06:46:26.502Z,10.54
2022-10-26T06:49:17.219Z,10.50
2022-10-26T06:51:57.924Z,10.15
2022-10-26T06:54:47.384Z,10.43
2022-10-26T06:57:16.425Z,10.38
2022-10-26T06:59:45.583Z,10.36
2022-10-26T07:02:14.925Z,10.41
2022-10-26T07:04:43.884Z,10.43
2022-10-26T07:07:22.709Z,10.46
2022-10-26T07:09:50.655Z,10.49
2022-10-26T07:12:17.985Z,10.33
2022-10-26T07:14:45.372Z,10.36
2022-10-26T07:17:12.704Z,10.46
2022-10-26T07:19:45.160Z,10.59
2022-10-26T07:22:12.950Z,10.62
2022-10-26T07:24:40.306Z,10.63
2022-10-26T07:27:07.475Z,10.59
2022-10-26T07:29:35.614Z,10.64
2022-10-26T07:32:03.135Z,10.53
2022-10-26T07:34:30.381Z,10.67
2022-10-26T07:36:59.939Z,10.16
2022-10-26T07:39:27.573Z,10.72
2022-10-26T07:41:54.819Z,10.63
2022-10-26T07:44:22.089Z,10.54
2022-10-26T07:46:49.443Z,10.75
2022-10-26T07:49:19.325Z,10.81
2022-10-26T07:51:46.894Z,10.85
2022-10-26T07:54:14.019Z,10.84
2022-10-26T07:56:41.347Z,10.93
2022-10-26T07:59:08.477Z,10.93
2022-10-26T08:01:36.099Z,11.02
2022-10-26T08:04:03.497Z,11.06
2022-10-26T08:06:30.574Z,10.95
2022-10-26T08:08:57.625Z,11.01
2022-10-26T08:11:24.968Z,11.14
2022-10-26T08:13:53.980Z,11.13
2022-10-26T08:16:22.067Z,10.53
2022-10-26T08:18:50.097Z,11.15
2022-10-26T08:21:25.989Z,11.15
2022-10-26T08:24:03.009Z,10.95
2022-10-26T08:26:30.894Z,11.11
2022-10-26T08:28:58.255Z,10.74
2022-10-26T08:31:25.580Z,10.82
2022-10-26T08:33:52.950Z,10.99
2022-10-26T08:36:27.894Z,11.13
2022-10-26T08:38:55.102Z,11.12
2022-10-26T08:41:40.455Z,11.05
2022-10-26T08:44:40.454Z,10.96
2022-10-26T08:49:52.415Z,11.08
2022-10-26T08:52:25.835Z,10.99
2022-10-26T08:54:57.134Z,11.21
2022-10-26T08:57:43.073Z,11.12
2022-10-26T09:00:18.477Z,11.24
2022-10-26T09:02:45.775Z,11.27
2022-10-26T09:05:17.777Z,11.29
2022-10-26T09:07:51.092Z,11.29
2022-10-26T09:13:02.101Z,11.30
2022-10-26T09:15:50.373Z,11.36
2022-10-26T09:18:17.620Z,11.36
2022-10-26T09:21:22.197Z,11.34
2022-10-26T09:24:07.735Z,11.36
2022-10-26T09:29:40.910Z,11.07
2022-10-26T09:32:17.445Z,11.38
2022-10-26T09:34:51.659Z,11.42
2022-10-26T09:37:26.828Z,11.45
2022-10-26T09:39:53.957Z,11.56
2022-10-26T09:42:29.594Z,11.44
2022-10-26T09:45:07.508Z,11.63
2022-10-26T09:47:43.384Z,11.68
2022-10-26T09:50:13.392Z,11.73
2022-10-26T09:52:40.818Z,11.23
2022-10-26T09:55:11.745Z,11.79
2022-10-26T09:57:42.788Z,11.88
2022-10-26T10:00:18.090Z,11.92
2022-10-26T10:02:49.324Z,11.86
2022-10-26T10:08:24.845Z,12.02
2022-10-26T10:10:59.821Z,12.09
2022-10-26T10:13:30.406Z,12.16
2022-10-26T10:16:06.216Z,12.22
2022-10-26T10:18:34.137Z,12.28
2022-10-26T10:21:02.064Z,12.06
2022-10-26T10:23:52.540Z,12.28
2022-10-26T10:26:19.983Z,12.40
2022-10-26T10:28:59.353Z,12.32
2022-10-26T10:31:32.500Z,12.44
2022-10-26T10:34:00.276Z,12.53
2022-10-26T10:36:30.633Z,12.44
2022-10-26T10:38:57.915Z,12.57
2022-10-26T10:41:36.859Z,12.60
2022-10-26T10:44:30.035Z,12.53
2022-10-26T10:47:06.503Z,12.57
2022-10-26T10:49:34.616Z,12.64
2022-10-26T10:52:01.939Z,12.64
2022-10-26T10:54:40.304Z,12.58
2022-10-26T10:57:40.301Z,12.56
2022-10-26T11:00:10.586Z,12.48
2022-10-26T11:02:56.594Z,12.57
2022-10-26T11:05:50.890Z,12.61
2022-10-26T11:08:28.075Z,12.63
2022-10-26T11:11:03.494Z,12.73
2022-10-26T11:13:35.254Z,12.78
2022-10-26T11:16:08.015Z,12.83
2022-10-26T11:18:44.775Z,12.88
2022-10-26T11:21:23.296Z,12.65
2022-10-26T11:23:57.763Z,12.65
2022-10-26T11:26:46.000Z,12.96
2022-10-26T11:29:35.021Z,13.04
2022-10-26T11:32:46.257Z,12.99
2022-10-26T11:35:33.654Z,13.10
2022-10-26T11:38:20.862Z,13.10
2022-10-26T11:41:34.297Z,13.14
2022-10-26T11:44:30.476Z,13.10
2022-10-26T11:47:03.247Z,13.22
2022-10-26T11:49:55.175Z,12.99
2022-10-26T11:52:48.001Z,13.22
2022-10-26T11:55:15.783Z,13.26
2022-10-26T11:57:43.494Z,13.35
2022-10-26T12:00:13.664Z,13.41
2022-10-26T12:05:22.413Z,13.60
2022-10-26T12:08:03.938Z,13.43
2022-10-26T12:10:34.933Z,13.69
2022-10-26T12:13:29.015Z,13.75
2022-10-26T12:16:07.334Z,13.82
2022-10-26T12:18:56.415Z,13.85
2022-10-26T12:21:30.377Z,13.94
2022-10-26T12:24:26.613Z,13.92
2022-10-26T12:26:59.226Z,14.05
2022-10-26T12:29:37.320Z,14.07
2022-10-26T12:32:25.335Z,14.06
2022-10-26T12:34:55.297Z,14.16
2022-10-26T12:37:32.143Z,14.18
2022-10-26T12:40:33.376Z,14.19
2022-10-26T12:43:16.146Z,14.23
2022-10-26T12:45:45.775Z,14.28
2022-10-26T12:48:38.827Z,14.29
2022-10-26T12:51:40.064Z,14.23
2022-10-26T12:54:25.698Z,14.28
2022-10-26T12:57:01.935Z,14.28
2022-10-26T12:59:56.695Z,14.25
2022-10-26T13:02:26.746Z,14.21
2022-10-26T13:05:08.586Z,14.15
2022-10-26T13:07:39.407Z,14.11
2022-10-26T13:10:27.377Z,14.11
2022-10-26T13:12:58.203Z,14.10
2022-10-26T13:15:31.401Z,14.08
2022-10-26T13:18:09.221Z,14.07
2022-10-26T13:20:52.548Z,14.05
2022-10-26T13:23:27.139Z,14.02
2022-10-26T13:26:13.220Z,14.00
2022-10-26T13:28:40.622Z,13.96
2022-10-26T13:31:33.908Z,13.95
2022-10-26T13:34:21.822Z,14.01
2022-10-26T13:37:03.816Z,14.12
2022-10-26T13:39:36.135Z,14.14
2022-10-26T13:42:05.860Z,14.01
2022-10-26T13:44:45.017Z,14.14
2022-10-26T13:47:22.444Z,14.18
2022-10-26T13:49:53.587Z,14.08
2022-10-26T13:52:33.506Z,14.17
2022-10-26T13:55:08.266Z,14.15
2022-10-26T13:57:40.859Z,14.11
2022-10-26T14:00:22.460Z,14.04
2022-10-26T14:02:50.190Z,13.92
2022-10-26T14:05:19.213Z,13.94
2022-10-26T14:07:54.098Z,13.87
2022-10-26T14:10:26.738Z,13.83
2022-10-26T14:12:54.855Z,13.75
2022-10-26T14:15:26.214Z,13.71
2022-10-26T14:17:55.702Z,13.73
2022-10-26T14:20:26.134Z,13.75
2022-10-26T14:22:53.535Z,13.77
2022-10-26T14:25:41.836Z,13.76
2022-10-26T14:28:28.405Z,13.78
2022-10-26T14:31:13.987Z,13.79
2022-10-26T14:33:43.765Z,13.79
2022-10-26T14:36:12.025Z,13.74
2022-10-26T14:38:45.545Z,13.75
2022-10-26T14:41:16.355Z,13.78
2022-10-26T14:43:45.300Z,13.61
2022-10-26T14:46:16.957Z,13.58
2022-10-26T14:49:04.734Z,13.67
2022-10-26T14:51:36.176Z,13.71
2022-10-26T14:54:05.039Z,13.69
2022-10-26T14:56:35.376Z,13.66
2022-10-26T14:59:31.989Z,13.59
2022-10-26T15:02:19.900Z,13.49
2022-10-26T15:05:05.226Z,13.51
2022-10-26T15:07:37.735Z,13.21
2022-10-26T15:10:06.187Z,13.45
2022-10-26T15:12:38.777Z,13.39
2022-10-26T15:17:55.107Z,13.13
2022-10-26T15:20:24.725Z,13.10
2022-10-26T15:22:54.807Z,13.10
2022-10-26T15:25:28.727Z,13.05
2022-10-26T15:28:09.866Z,13.01
2022-10-26T15:30:37.214Z,12.91
2022-10-26T15:33:20.554Z,12.86
2022-10-26T15:35:48.044Z,12.58
2022-10-26T15:38:15.336Z,12.50
2022-10-26T15:40:44.056Z,12.61
2022-10-26T15:43:11.824Z,12.67
2022-10-26T15:45:48.585Z,12.61
2022-10-26T15:48:30.134Z,12.48
2022-10-26T15:50:57.663Z,12.26
2022-10-26T15:53:30.808Z,12.42
2022-10-26T15:56:00.244Z,12.27
2022-10-26T15:58:30.025Z,12.20
2022-10-26T16:00:57.315Z,12.30
2022-10-26T16:03:26.605Z,12.27
2022-10-26T16:05:59.784Z,12.22
2022-10-26T16:08:29.934Z,12.16
2022-10-26T16:10:57.859Z,12.13
2022-10-26T16:13:25.065Z,11.86
2022-10-26T16:15:52.353Z,11.44
2022-10-26T16:18:19.646Z,11.62
2022-10-26T16:20:46.987Z,11.95
2022-10-26T16:23:14.557Z,11.87
2022-10-26T16:25:44.675Z,11.85
2022-10-26T16:28:14.574Z,11.82
2022-10-26T16:30:42.206Z,11.78
2022-10-26T16:33:09.555Z,11.73
2022-10-26T16:35:36.774Z,11.69
2022-10-26T16:38:04.138Z,11.66
2022-10-26T16:40:31.365Z,11.65
2022-10-26T16:42:58.498Z,11.51
2022-10-26T16:45:25.823Z,11.61
2022-10-26T16:47:53.598Z,11.59
2022-10-26T16:50:22.315Z,11.36
2022-10-26T16:52:49.519Z,11.61
2022-10-26T16:55:17.250Z,11.60
2022-10-26T16:57:44.474Z,11.58
2022-10-26T17:00:11.906Z,11.57
2022-10-26T17:02:40.451Z,11.51
2022-10-26T17:05:09.704Z,11.50
2022-10-26T17:07:36.896Z,11.54
2022-10-26T17:10:04.816Z,11.57
2022-10-26T17:12:32.308Z,11.57
2022-10-26T17:15:00.767Z,11.49
2022-10-26T17:17:27.948Z,11.54
2022-10-26T17:19:55.359Z,11.59
2022-10-26T17:22:22.677Z,11.53
2022-10-26T17:24:50.028Z,11.52
2022-10-26T17:27:17.657Z,11.54
2022-10-26T17:29:44.783Z,11.47
2022-10-26T17:32:12.092Z,11.53
2022-10-26T17:34:39.467Z,11.47
2022-10-26T17:37:06.817Z,11.37
2022-10-26T17:39:33.928Z,11.44
2022-10-26T17:42:01.035Z,11.52
2022-10-26T17:44:28.259Z,11.40
2022-10-26T17:46:55.711Z,11.46
2022-10-26T17:49:25.085Z,11.48
2022-10-26T17:51:54.259Z,11.52
2022-10-26T17:54:21.714Z,11.52
2022-10-26T17:56:48.947Z,11.30
2022-10-26T17:59:16.074Z,11.53
2022-10-26T18:01:43.873Z,11.46
2022-10-26T18:04:11.204Z,11.44
2022-10-26T18:06:38.538Z,11.52
2022-10-26T18:09:05.817Z,11.33
2022-10-26T18:11:33.109Z,11.35
2022-10-26T18:14:00.338Z,11.49
2022-10-26T18:16:28.376Z,11.49
2022-10-26T18:19:01.520Z,11.49
2022-10-26T18:21:30.648Z,11.31
2022-10-26T18:23:58.045Z,11.38
2022-10-26T18:26:29.134Z,11.51
2022-10-26T18:28:57.747Z,11.22
2022-10-26T18:31:26.587Z,11.48
2022-10-26T18:33:58.548Z,11.48
2022-10-26T18:36:27.558Z,11.48
2022-10-26T18:38:55.607Z,11.48
2022-10-26T18:41:24.253Z,11.48
2022-10-26T18:43:54.437Z,11.50
2022-10-26T18:46:24.544Z,11.47
2022-10-26T18:48:52.666Z,11.47
2022-10-26T18:51:22.893Z,11.06
2022-10-26T18:53:50.228Z,11.44
2022-10-26T18:56:20.148Z,11.45
2022-10-26T18:58:50.137Z,11.45
2022-10-26T19:01:28.506Z,11.43
2022-10-26T19:04:00.933Z,11.40
2022-10-26T19:06:30.860Z,11.39
2022-10-26T19:08:58.869Z,11.37
2022-10-26T19:11:27.953Z,11.27
2022-10-26T19:13:55.635Z,11.32
2022-10-26T19:16:45.284Z,11.16
2022-10-26T19:19:12.714Z,11.23
2022-10-26T19:21:39.914Z,11.20
2022-10-26T19:24:13.103Z,11.27
2022-10-26T19:26:43.520Z,11.20
2022-10-26T19:29:16.618Z,11.24
2022-10-26T19:31:45.951Z,11.25
2022-10-26T19:34:14.701Z,11.23
2022-10-26T19:36:45.467Z,11.23
2022-10-26T19:39:17.350Z,11.21
2022-10-26T19:41:45.925Z,11.20
2022-10-26T19:44:15.214Z,10.93
2022-10-26T19:46:43.908Z,11.25
2022-10-26T19:49:13.046Z,11.26
2022-10-26T19:51:40.593Z,11.02
2022-10-26T19:54:07.986Z,11.21
2022-10-26T19:56:36.972Z,11.27
2022-10-26T19:59:05.350Z,11.30
2022-10-26T20:01:32.995Z,11.30
2022-10-26T20:04:02.997Z,11.31
2022-10-26T20:06:31.258Z,11.24
2022-10-26T20:08:59.317Z,11.27
2022-10-26T20:11:26.654Z,11.15
2022-10-26T20:13:56.244Z,11.21
2022-10-26T20:16:24.133Z,11.24
2022-10-26T20:18:51.608Z,11.23
2022-10-26T20:21:18.820Z,11.23
2022-10-26T20:23:46.293Z,11.01
2022-10-26T20:26:19.654Z,11.23
2022-10-26T20:28:51.282Z,11.25
2022-10-26T20:31:18.973Z,11.04
2022-10-26T20:33:50.024Z,11.21
2022-10-26T20:36:17.097Z,11.12
2022-10-26T20:38:44.734Z,11.15
2022-10-26T20:41:15.016Z,11.18
2022-10-26T20:43:43.017Z,11.16
2022-10-26T20:46:23.493Z,11.12
2022-10-26T20:48:52.224Z,11.08
2022-10-26T20:51:34.329Z,11.08
2022-10-26T20:54:17.229Z,11.07
2022-10-26T20:56:45.758Z,11.03
2022-10-26T20:59:40.457Z,11.05
2022-10-26T21:02:10.568Z,10.93
2022-10-26T21:04:37.928Z,10.99
2022-10-26T21:07:05.148Z,10.91
2022-10-26T21:09:35.696Z,10.88
2022-10-26T21:12:04.584Z,10.99
2022-10-26T21:14:36.058Z,10.95
2022-10-26T21:17:03.249Z,10.96
2022-10-26T21:19:30.476Z,10.83
2022-10-26T21:21:57.662Z,10.92
2022-10-26T21:24:24.963Z,10.80
2022-10-26T21:26:52.841Z,10.79
2022-10-26T21:29:20.169Z,10.82
2022-10-26T21:31:47.536Z,10.81
2022-10-26T21:34:14.929Z,10.86
2022-10-26T21:36:42.085Z,10.88
2022-10-26T21:39:09.306Z,10.90
2022-10-26T21:41:38.104Z,10.90
2022-10-26T21:44:09.627Z,10.88
2022-10-26T21:46:43.328Z,10.86
2022-10-26T21:49:10.778Z,10.79
2022-10-26T21:51:38.239Z,10.79
2022-10-26T21:54:05.498Z,10.75
2022-10-26T21:56:32.631Z,10.73
2022-10-26T21:59:01.016Z,10.52
2022-10-26T22:01:28.288Z,10.60
2022-10-26T22:03:56.368Z,10.68
2022-10-26T22:06:23.639Z,10.67
2022-10-26T22:08:50.871Z,10.58
2022-10-26T22:11:21.417Z,10.71
2022-10-26T22:13:50.098Z,10.48
2022-10-26T22:16:22.361Z,10.65
2022-10-26T22:18:50.684Z,10.62
2022-10-26T22:21:19.360Z,10.58
2022-10-26T22:23:47.529Z,10.56
2022-10-26T22:26:20.512Z,10.08
2022-10-26T22:28:50.333Z,10.57
2022-10-26T22:31:27.580Z,10.55
2022-10-26T22:34:03.294Z,10.11
2022-10-26T22:36:33.819Z,10.53
2022-10-26T22:39:01.031Z,10.58
2022-10-26T22:41:28.111Z,10.54
2022-10-26T22:43:55.339Z,10.31
2022-10-26T22:46:27.683Z,10.38
2022-10-26T22:48:57.421Z,10.47
2022-10-26T22:51:26.560Z,10.59
2022-10-26T22:53:55.288Z,10.49
2022-10-26T22:56:24.077Z,10.61
2022-10-26T22:58:52.330Z,10.61
2022-10-26T23:01:25.484Z,10.55
2022-10-26T23:03:54.142Z,10.47
2022-10-26T23:06:21.873Z,10.61
2022-10-26T23:08:49.481Z,10.59
2022-10-26T23:11:19.011Z,10.58
2022-10-26T23:13:46.210Z,10.54
2022-10-26T23:16:20.803Z,10.47
2022-10-26T23:18:49.160Z,10.46
2022-10-26T23:21:17.436Z,10.48
2022-10-26T23:23:45.108Z,10.40
2022-10-26T23:26:14.805Z,10.41
2022-10-26T23:28:43.338Z,10.40
2022-10-26T23:31:23.018Z,10.34
2022-10-26T23:33:51.677Z,10.26
2022-10-26T23:36:19.583Z,10.35
2022-10-26T23:38:46.965Z,10.16
2022-10-26T23:41:14.879Z,10.35
2022-10-26T23:43:42.238Z,10.36
2022-10-26T23:46:09.453Z,10.11
2022-10-26T23:48:37.557Z,10.32
2022-10-26T23:51:05.206Z,10.26
2022-10-26T23:53:32.569Z,10.21
2022-10-26T23:55:59.901Z,10.15
2022-10-26T23:58:27.082Z,10.16
